sensor_id;sensor_type;location;lat;lon;timestamp;temperature;humidity
61398;DHT22;47267;48.130;-2.040;2022-11-14T00:00:13;19.30;63.20
61398;DHT22;47267;48.130;-2.040;2022-11-14T00:02:39;19.30;63.20
61398;DHT22;47267;48.130;-2.040;2022-11-14T00:05:05;19.20;63.10
61398;DHT22;47267;48.130;-2.040;2022-11-14T00:07:33;19.30;63.20
61398;DHT22;47267;48.130;-2.040;2022-11-14T00:09:59;19.30;63.20
61398;DHT22;47267;48.130;-2.040;2022-11-14T00:12:25;19.30;63.20
61398;DHT22;47267;48.130;-2.040;2022-11-14T00:14:51;19.20;63.10
61398;DHT22;47267;48.130;-2.040;2022-11-14T00:17:17;19.30;63.10
61398;DHT22;47267;48.130;-2.040;2022-11-14T00:19:43;19.30;63.10
61398;DHT22;47267;48.130;-2.040;2022-11-14T00:22:09;19.20;63.10
61398;DHT22;47267;48.130;-2.040;2022-11-14T00:24:34;19.20;63.10
61398;DHT22;47267;48.130;-2.040;2022-11-14T00:27:00;19.20;63.10
61398;DHT22;47267;48.130;-2.040;2022-11-14T00:29:26;19.20;63.10
61398;DHT22;47267;48.130;-2.040;2022-11-14T00:31:52;19.20;63.10
61398;DHT22;47267;48.130;-2.040;2022-11-14T00:34:17;19.20;63.10
61398;DHT22;47267;48.130;-2.040;2022-11-14T00:36:43;19.20;63.10
61398;DHT22;47267;48.130;-2.040;2022-11-14T00:39:13;19.20;63.00
61398;DHT22;47267;48.130;-2.040;2022-11-14T00:41:40;19.20;63.10
61398;DHT22;47267;48.130;-2.040;2022-11-14T00:44:06;19.20;63.00
61398;DHT22;47267;48.130;-2.040;2022-11-14T00:46:33;19.20;63.10
61398;DHT22;47267;48.130;-2.040;2022-11-14T00:48:58;19.20;63.00
61398;DHT22;47267;48.130;-2.040;2022-11-14T00:51:24;19.20;63.00
61398;DHT22;47267;48.130;-2.040;2022-11-14T00:53:50;19.20;63.00
61398;DHT22;47267;48.130;-2.040;2022-11-14T00:56:16;19.20;63.60
61398;DHT22;47267;48.130;-2.040;2022-11-14T00:58:41;19.10;63.00
61398;DHT22;47267;48.130;-2.040;2022-11-14T01:01:07;19.10;63.00
61398;DHT22;47267;48.130;-2.040;2022-11-14T01:03:33;19.10;63.00
61398;DHT22;47267;48.130;-2.040;2022-11-14T01:06:04;19.20;63.00
61398;DHT22;47267;48.130;-2.040;2022-11-14T01:08:30;19.10;63.00
61398;DHT22;47267;48.130;-2.040;2022-11-14T01:10:56;19.10;62.90
61398;DHT22;47267;48.130;-2.040;2022-11-14T01:13:21;19.10;62.90
61398;DHT22;47267;48.130;-2.040;2022-11-14T01:15:48;19.10;63.00
61398;DHT22;47267;48.130;-2.040;2022-11-14T01:18:16;19.10;62.90
61398;DHT22;47267;48.130;-2.040;2022-11-14T01:20:44;19.10;63.00
61398;DHT22;47267;48.130;-2.040;2022-11-14T01:23:11;19.10;62.90
61398;DHT22;47267;48.130;-2.040;2022-11-14T01:25:38;19.10;62.90
61398;DHT22;47267;48.130;-2.040;2022-11-14T01:28:06;19.10;62.90
61398;DHT22;47267;48.130;-2.040;2022-11-14T01:30:32;19.10;62.90
61398;DHT22;47267;48.130;-2.040;2022-11-14T01:32:58;19.10;62.90
61398;DHT22;47267;48.130;-2.040;2022-11-14T01:35:24;19.10;62.90
61398;DHT22;47267;48.130;-2.040;2022-11-14T01:37:49;19.10;62.90
61398;DHT22;47267;48.130;-2.040;2022-11-14T01:40:15;19.10;62.90
61398;DHT22;47267;48.130;-2.040;2022-11-14T01:42:41;19.10;62.90
61398;DHT22;47267;48.130;-2.040;2022-11-14T01:50:54;19.10;62.90
61398;DHT22;47267;48.130;-2.040;2022-11-14T01:53:21;19.10;63.50
61398;DHT22;47267;48.130;-2.040;2022-11-14T01:55:46;19.10;62.90
61398;DHT22;47267;48.130;-2.040;2022-11-14T01:58:13;19.10;62.90
61398;DHT22;47267;48.130;-2.040;2022-11-14T02:00:40;19.10;62.90
61398;DHT22;47267;48.130;-2.040;2022-11-14T02:03:06;19.00;62.80
61398;DHT22;47267;48.130;-2.040;2022-11-14T02:05:32;19.10;62.90
61398;DHT22;47267;48.130;-2.040;2022-11-14T02:07:59;19.00;62.80
61398;DHT22;47267;48.130;-2.040;2022-11-14T02:10:24;19.00;62.80
61398;DHT22;47267;48.130;-2.040;2022-11-14T02:12:50;19.00;62.80
61398;DHT22;47267;48.130;-2.040;2022-11-14T02:15:17;19.00;62.80
61398;DHT22;47267;48.130;-2.040;2022-11-14T02:17:43;19.00;62.80
61398;DHT22;47267;48.130;-2.040;2022-11-14T02:22:35;19.00;62.70
61398;DHT22;47267;48.130;-2.040;2022-11-14T02:25:01;19.00;62.80
61398;DHT22;47267;48.130;-2.040;2022-11-14T02:27:28;19.00;62.80
61398;DHT22;47267;48.130;-2.040;2022-11-14T02:30:03;19.00;62.80
61398;DHT22;47267;48.130;-2.040;2022-11-14T02:32:29;19.00;62.70
61398;DHT22;47267;48.130;-2.040;2022-11-14T02:34:54;19.00;62.80
61398;DHT22;47267;48.130;-2.040;2022-11-14T02:37:20;19.00;62.70
61398;DHT22;47267;48.130;-2.040;2022-11-14T02:39:46;19.00;62.70
61398;DHT22;47267;48.130;-2.040;2022-11-14T02:42:12;19.00;62.70
61398;DHT22;47267;48.130;-2.040;2022-11-14T02:44:38;19.00;62.80
61398;DHT22;47267;48.130;-2.040;2022-11-14T02:47:04;19.00;62.70
61398;DHT22;47267;48.130;-2.040;2022-11-14T02:49:29;19.00;62.70
61398;DHT22;47267;48.130;-2.040;2022-11-14T02:51:55;18.90;63.20
61398;DHT22;47267;48.130;-2.040;2022-11-14T02:54:21;18.90;62.70
61398;DHT22;47267;48.130;-2.040;2022-11-14T02:56:47;18.90;62.70
61398;DHT22;47267;48.130;-2.040;2022-11-14T02:59:12;18.90;62.60
61398;DHT22;47267;48.130;-2.040;2022-11-14T03:01:41;18.90;62.70
61398;DHT22;47267;48.130;-2.040;2022-11-14T03:04:07;18.90;62.60
61398;DHT22;47267;48.130;-2.040;2022-11-14T03:06:33;18.90;62.60
61398;DHT22;47267;48.130;-2.040;2022-11-14T03:08:59;18.90;62.70
61398;DHT22;47267;48.130;-2.040;2022-11-14T03:11:24;18.90;62.60
61398;DHT22;47267;48.130;-2.040;2022-11-14T03:13:50;18.90;62.60
61398;DHT22;47267;48.130;-2.040;2022-11-14T03:16:16;18.90;62.60
61398;DHT22;47267;48.130;-2.040;2022-11-14T03:18:41;18.90;62.60
61398;DHT22;47267;48.130;-2.040;2022-11-14T03:21:10;18.90;62.60
61398;DHT22;47267;48.130;-2.040;2022-11-14T03:23:36;18.90;62.60
61398;DHT22;47267;48.130;-2.040;2022-11-14T03:26:03;18.90;62.60
61398;DHT22;47267;48.130;-2.040;2022-11-14T03:28:29;18.90;62.50
61398;DHT22;47267;48.130;-2.040;2022-11-14T03:30:55;18.90;62.60
61398;DHT22;47267;48.130;-2.040;2022-11-14T03:33:22;18.90;62.60
61398;DHT22;47267;48.130;-2.040;2022-11-14T03:35:51;18.90;62.50
61398;DHT22;47267;48.130;-2.040;2022-11-14T03:38:18;18.90;62.60
61398;DHT22;47267;48.130;-2.040;2022-11-14T03:40:48;18.90;62.60
61398;DHT22;47267;48.130;-2.040;2022-11-14T03:43:15;18.80;62.50
61398;DHT22;47267;48.130;-2.040;2022-11-14T03:45:41;18.80;62.50
61398;DHT22;47267;48.130;-2.040;2022-11-14T03:48:06;18.80;62.50
61398;DHT22;47267;48.130;-2.040;2022-11-14T03:50:32;18.80;62.50
61398;DHT22;47267;48.130;-2.040;2022-11-14T03:52:58;18.80;62.50
61398;DHT22;47267;48.130;-2.040;2022-11-14T03:55:24;18.80;62.50
61398;DHT22;47267;48.130;-2.040;2022-11-14T03:57:50;18.80;62.50
61398;DHT22;47267;48.130;-2.040;2022-11-14T04:00:16;18.80;62.50
61398;DHT22;47267;48.130;-2.040;2022-11-14T04:02:42;18.80;62.50
61398;DHT22;47267;48.130;-2.040;2022-11-14T04:05:08;18.80;62.50
61398;DHT22;47267;48.130;-2.040;2022-11-14T04:07:34;18.80;62.50
61398;DHT22;47267;48.130;-2.040;2022-11-14T04:10:01;18.80;62.40
61398;DHT22;47267;48.130;-2.040;2022-11-14T04:12:27;18.80;62.40
61398;DHT22;47267;48.130;-2.040;2022-11-14T04:14:52;18.80;62.40
61398;DHT22;47267;48.130;-2.040;2022-11-14T04:17:18;18.70;62.30
61398;DHT22;47267;48.130;-2.040;2022-11-14T04:19:44;18.70;62.30
61398;DHT22;47267;48.130;-2.040;2022-11-14T04:22:09;18.70;62.40
61398;DHT22;47267;48.130;-2.040;2022-11-14T04:24:35;18.80;62.40
61398;DHT22;47267;48.130;-2.040;2022-11-14T04:27:01;18.70;62.40
61398;DHT22;47267;48.130;-2.040;2022-11-14T04:29:26;18.70;62.40
61398;DHT22;47267;48.130;-2.040;2022-11-14T04:31:52;18.70;62.30
61398;DHT22;47267;48.130;-2.040;2022-11-14T04:34:18;18.70;62.30
61398;DHT22;47267;48.130;-2.040;2022-11-14T04:36:44;18.70;62.40
61398;DHT22;47267;48.130;-2.040;2022-11-14T04:39:09;18.70;62.40
61398;DHT22;47267;48.130;-2.040;2022-11-14T04:41:35;18.70;62.40
61398;DHT22;47267;48.130;-2.040;2022-11-14T04:44:00;18.70;62.30
61398;DHT22;47267;48.130;-2.040;2022-11-14T04:46:26;18.70;62.40
61398;DHT22;47267;48.130;-2.040;2022-11-14T04:48:52;18.70;62.40
61398;DHT22;47267;48.130;-2.040;2022-11-14T04:51:18;18.70;62.30
61398;DHT22;47267;48.130;-2.040;2022-11-14T04:53:43;18.70;62.40
61398;DHT22;47267;48.130;-2.040;2022-11-14T04:56:09;18.70;62.30
61398;DHT22;47267;48.130;-2.040;2022-11-14T04:58:35;18.70;62.30
61398;DHT22;47267;48.130;-2.040;2022-11-14T05:01:09;18.70;62.40
61398;DHT22;47267;48.130;-2.040;2022-11-14T05:03:35;18.70;62.30
61398;DHT22;47267;48.130;-2.040;2022-11-14T05:06:01;18.70;62.30
61398;DHT22;47267;48.130;-2.040;2022-11-14T05:08:27;18.70;62.30
61398;DHT22;47267;48.130;-2.040;2022-11-14T05:10:53;18.70;62.30
61398;DHT22;47267;48.130;-2.040;2022-11-14T05:13:18;18.70;62.30
61398;DHT22;47267;48.130;-2.040;2022-11-14T05:15:44;18.70;62.30
61398;DHT22;47267;48.130;-2.040;2022-11-14T05:18:10;18.70;62.30
61398;DHT22;47267;48.130;-2.040;2022-11-14T05:20:36;18.70;62.30
61398;DHT22;47267;48.130;-2.040;2022-11-14T05:23:01;18.60;62.20
61398;DHT22;47267;48.130;-2.040;2022-11-14T05:25:27;18.60;62.20
61398;DHT22;47267;48.130;-2.040;2022-11-14T05:27:53;18.60;62.20
61398;DHT22;47267;48.130;-2.040;2022-11-14T05:30:19;18.60;62.30
61398;DHT22;47267;48.130;-2.040;2022-11-14T05:32:45;18.70;62.30
61398;DHT22;47267;48.130;-2.040;2022-11-14T05:35:10;18.60;62.20
61398;DHT22;47267;48.130;-2.040;2022-11-14T05:37:36;18.60;62.20
61398;DHT22;47267;48.130;-2.040;2022-11-14T05:40:03;18.60;62.20
61398;DHT22;47267;48.130;-2.040;2022-11-14T05:42:29;18.60;62.20
61398;DHT22;47267;48.130;-2.040;2022-11-14T05:44:55;18.60;62.20
61398;DHT22;47267;48.130;-2.040;2022-11-14T05:47:21;18.60;62.20
61398;DHT22;47267;48.130;-2.040;2022-11-14T05:49:46;18.60;62.20
61398;DHT22;47267;48.130;-2.040;2022-11-14T05:52:12;18.60;62.20
61398;DHT22;47267;48.130;-2.040;2022-11-14T05:54:38;18.60;62.20
61398;DHT22;47267;48.130;-2.040;2022-11-14T05:57:04;18.60;62.20
61398;DHT22;47267;48.130;-2.040;2022-11-14T05:59:29;18.60;62.20
61398;DHT22;47267;48.130;-2.040;2022-11-14T06:01:56;18.60;62.80
61398;DHT22;47267;48.130;-2.040;2022-11-14T06:04:22;18.60;62.20
61398;DHT22;47267;48.130;-2.040;2022-11-14T06:06:48;18.60;62.20
61398;DHT22;47267;48.130;-2.040;2022-11-14T06:09:16;18.60;62.20
61398;DHT22;47267;48.130;-2.040;2022-11-14T06:11:42;18.60;62.20
61398;DHT22;47267;48.130;-2.040;2022-11-14T06:14:07;18.60;62.20
61398;DHT22;47267;48.130;-2.040;2022-11-14T06:16:33;18.60;62.20
61398;DHT22;47267;48.130;-2.040;2022-11-14T06:18:59;18.50;62.10
61398;DHT22;47267;48.130;-2.040;2022-11-14T06:21:25;18.50;62.10
61398;DHT22;47267;48.130;-2.040;2022-11-14T06:23:51;18.50;62.10
61398;DHT22;47267;48.130;-2.040;2022-11-14T06:26:29;18.60;62.20
61398;DHT22;47267;48.130;-2.040;2022-11-14T06:28:56;18.60;62.20
61398;DHT22;47267;48.130;-2.040;2022-11-14T06:31:24;18.50;62.10
61398;DHT22;47267;48.130;-2.040;2022-11-14T06:33:50;18.50;62.10
61398;DHT22;47267;48.130;-2.040;2022-11-14T06:36:16;18.50;62.10
61398;DHT22;47267;48.130;-2.040;2022-11-14T06:38:43;18.50;62.10
61398;DHT22;47267;48.130;-2.040;2022-11-14T06:41:09;18.50;62.10
61398;DHT22;47267;48.130;-2.040;2022-11-14T06:43:39;18.60;62.20
61398;DHT22;47267;48.130;-2.040;2022-11-14T06:46:06;18.50;62.70
61398;DHT22;47267;48.130;-2.040;2022-11-14T06:48:33;18.50;62.10
61398;DHT22;47267;48.130;-2.040;2022-11-14T06:50:59;18.50;62.10
61398;DHT22;47267;48.130;-2.040;2022-11-14T06:53:27;18.50;62.10
61398;DHT22;47267;48.130;-2.040;2022-11-14T06:56:00;18.60;62.20
61398;DHT22;47267;48.130;-2.040;2022-11-14T06:58:30;18.50;62.20
61398;DHT22;47267;48.130;-2.040;2022-11-14T07:01:09;18.50;62.30
61398;DHT22;47267;48.130;-2.040;2022-11-14T07:03:35;18.50;62.30
61398;DHT22;47267;48.130;-2.040;2022-11-14T07:06:04;18.50;62.30
61398;DHT22;47267;48.130;-2.040;2022-11-14T07:08:30;18.50;62.40
61398;DHT22;47267;48.130;-2.040;2022-11-14T07:11:07;18.50;62.40
61398;DHT22;47267;48.130;-2.040;2022-11-14T07:13:34;18.50;62.40
61398;DHT22;47267;48.130;-2.040;2022-11-14T07:16:00;18.50;62.50
61398;DHT22;47267;48.130;-2.040;2022-11-14T07:18:28;18.50;62.50
61398;DHT22;47267;48.130;-2.040;2022-11-14T07:21:02;18.50;62.50
61398;DHT22;47267;48.130;-2.040;2022-11-14T07:23:30;18.50;62.60
61398;DHT22;47267;48.130;-2.040;2022-11-14T07:26:05;18.50;62.60
61398;DHT22;47267;48.130;-2.040;2022-11-14T07:28:33;18.50;62.60
61398;DHT22;47267;48.130;-2.040;2022-11-14T07:31:01;18.50;62.60
61398;DHT22;47267;48.130;-2.040;2022-11-14T07:33:27;18.50;62.60
61398;DHT22;47267;48.130;-2.040;2022-11-14T07:35:54;18.50;62.60
61398;DHT22;47267;48.130;-2.040;2022-11-14T07:38:20;18.50;62.70
61398;DHT22;47267;48.130;-2.040;2022-11-14T07:40:59;18.50;62.70
61398;DHT22;47267;48.130;-2.040;2022-11-14T07:43:25;18.50;62.70
61398;DHT22;47267;48.130;-2.040;2022-11-14T07:45:51;18.50;62.70
61398;DHT22;47267;48.130;-2.040;2022-11-14T07:48:17;18.50;62.80
61398;DHT22;47267;48.130;-2.040;2022-11-14T07:50:43;18.60;62.90
61398;DHT22;47267;48.130;-2.040;2022-11-14T07:53:09;18.60;62.90
61398;DHT22;47267;48.130;-2.040;2022-11-14T07:55:36;18.60;62.90
61398;DHT22;47267;48.130;-2.040;2022-11-14T07:58:02;18.60;62.90
61398;DHT22;47267;48.130;-2.040;2022-11-14T08:00:28;18.60;62.90
61398;DHT22;47267;48.130;-2.040;2022-11-14T08:02:54;18.60;62.90
61398;DHT22;47267;48.130;-2.040;2022-11-14T08:05:20;18.70;63.00
61398;DHT22;47267;48.130;-2.040;2022-11-14T08:07:46;18.70;63.00
61398;DHT22;47267;48.130;-2.040;2022-11-14T08:10:12;18.70;63.20
61398;DHT22;47267;48.130;-2.040;2022-11-14T08:12:39;18.70;63.00
61398;DHT22;47267;48.130;-2.040;2022-11-14T08:15:11;18.70;63.00
61398;DHT22;47267;48.130;-2.040;2022-11-14T08:17:37;18.70;63.00
61398;DHT22;47267;48.130;-2.040;2022-11-14T08:20:04;18.70;63.00
61398;DHT22;47267;48.130;-2.040;2022-11-14T08:22:30;18.70;63.00
61398;DHT22;47267;48.130;-2.040;2022-11-14T08:24:56;18.80;63.10
61398;DHT22;47267;48.130;-2.040;2022-11-14T08:27:23;18.70;63.00
61398;DHT22;47267;48.130;-2.040;2022-11-14T08:29:49;18.80;63.10
61398;DHT22;47267;48.130;-2.040;2022-11-14T08:32:16;18.80;63.00
61398;DHT22;47267;48.130;-2.040;2022-11-14T08:34:42;18.80;63.00
61398;DHT22;47267;48.130;-2.040;2022-11-14T08:37:08;18.80;63.00
61398;DHT22;47267;48.130;-2.040;2022-11-14T08:39:34;18.90;63.10
61398;DHT22;47267;48.130;-2.040;2022-11-14T08:42:00;18.90;63.10
61398;DHT22;47267;48.130;-2.040;2022-11-14T08:44:26;18.90;63.10
61398;DHT22;47267;48.130;-2.040;2022-11-14T08:46:51;18.90;63.10
61398;DHT22;47267;48.130;-2.040;2022-11-14T08:49:17;18.90;63.10
61398;DHT22;47267;48.130;-2.040;2022-11-14T08:51:43;18.90;63.10
61398;DHT22;47267;48.130;-2.040;2022-11-14T08:54:09;18.90;63.10
61398;DHT22;47267;48.130;-2.040;2022-11-14T08:56:34;18.90;63.10
61398;DHT22;47267;48.130;-2.040;2022-11-14T08:59:03;19.00;63.20
61398;DHT22;47267;48.130;-2.040;2022-11-14T09:01:29;19.00;63.10
61398;DHT22;47267;48.130;-2.040;2022-11-14T09:03:57;19.00;63.10
61398;DHT22;47267;48.130;-2.040;2022-11-14T09:06:24;19.00;63.10
61398;DHT22;47267;48.130;-2.040;2022-11-14T09:08:50;19.00;63.10
61398;DHT22;47267;48.130;-2.040;2022-11-14T09:11:15;19.00;63.20
61398;DHT22;47267;48.130;-2.040;2022-11-14T09:13:41;19.00;63.10
61398;DHT22;47267;48.130;-2.040;2022-11-14T09:16:07;19.10;63.20
61398;DHT22;47267;48.130;-2.040;2022-11-14T09:18:33;19.10;63.20
61398;DHT22;47267;48.130;-2.040;2022-11-14T09:21:04;19.10;63.20
61398;DHT22;47267;48.130;-2.040;2022-11-14T09:23:30;19.10;63.20
61398;DHT22;47267;48.130;-2.040;2022-11-14T09:25:56;19.10;63.20
61398;DHT22;47267;48.130;-2.040;2022-11-14T09:28:23;19.10;63.20
61398;DHT22;47267;48.130;-2.040;2022-11-14T09:30:49;19.10;63.20
61398;DHT22;47267;48.130;-2.040;2022-11-14T09:33:15;19.20;63.30
61398;DHT22;47267;48.130;-2.040;2022-11-14T09:35:41;19.20;63.20
61398;DHT22;47267;48.130;-2.040;2022-11-14T09:38:09;19.20;63.20
61398;DHT22;47267;48.130;-2.040;2022-11-14T09:46:23;19.20;63.20
61398;DHT22;47267;48.130;-2.040;2022-11-14T09:48:51;19.20;63.20
61398;DHT22;47267;48.130;-2.040;2022-11-14T09:51:24;19.30;63.20
61398;DHT22;47267;48.130;-2.040;2022-11-14T09:56:42;19.30;63.20
61398;DHT22;47267;48.130;-2.040;2022-11-14T09:59:10;19.30;63.20
61398;DHT22;47267;48.130;-2.040;2022-11-14T10:01:48;19.30;63.20
61398;DHT22;47267;48.130;-2.040;2022-11-14T10:07:07;19.30;63.20
61398;DHT22;47267;48.130;-2.040;2022-11-14T10:09:57;19.30;63.20
61398;DHT22;47267;48.130;-2.040;2022-11-14T10:12:29;19.30;63.50
61398;DHT22;47267;48.130;-2.040;2022-11-14T10:26:30;19.40;63.20
61398;DHT22;47267;48.130;-2.040;2022-11-14T10:40:38;19.40;63.20
61398;DHT22;47267;48.130;-2.040;2022-11-14T10:43:36;19.40;63.20
61398;DHT22;47267;48.130;-2.040;2022-11-14T10:46:25;19.40;63.20
61398;DHT22;47267;48.130;-2.040;2022-11-14T10:48:54;19.40;63.20
61398;DHT22;47267;48.130;-2.040;2022-11-14T10:51:34;19.40;63.20
61398;DHT22;47267;48.130;-2.040;2022-11-14T10:56:51;19.50;63.20
61398;DHT22;47267;48.130;-2.040;2022-11-14T10:59:20;19.50;63.80
61398;DHT22;47267;48.130;-2.040;2022-11-14T11:04:26;19.50;63.20
61398;DHT22;47267;48.130;-2.040;2022-11-14T11:07:16;19.50;63.20
61398;DHT22;47267;48.130;-2.040;2022-11-14T11:10:03;19.50;63.10
61398;DHT22;47267;48.130;-2.040;2022-11-14T11:12:52;19.50;63.10
61398;DHT22;47267;48.130;-2.040;2022-11-14T11:15:27;19.50;63.10
61398;DHT22;47267;48.130;-2.040;2022-11-14T11:18:04;19.50;63.10
61398;DHT22;47267;48.130;-2.040;2022-11-14T11:20:39;19.50;63.10
61398;DHT22;47267;48.130;-2.040;2022-11-14T11:25:35;19.60;63.20
61398;DHT22;47267;48.130;-2.040;2022-11-14T11:28:10;19.60;63.20
61398;DHT22;47267;48.130;-2.040;2022-11-14T11:30:37;19.60;63.20
61398;DHT22;47267;48.130;-2.040;2022-11-14T11:33:22;19.60;63.10
61398;DHT22;47267;48.130;-2.040;2022-11-14T11:35:49;19.60;63.10
61398;DHT22;47267;48.130;-2.040;2022-11-14T11:38:18;19.60;63.10
61398;DHT22;47267;48.130;-2.040;2022-11-14T11:40:51;19.60;63.10
61398;DHT22;47267;48.130;-2.040;2022-11-14T11:43:35;19.60;63.10
61398;DHT22;47267;48.130;-2.040;2022-11-14T11:46:08;19.60;63.20
61398;DHT22;47267;48.130;-2.040;2022-11-14T11:48:39;19.60;63.10
61398;DHT22;47267;48.130;-2.040;2022-11-14T11:51:11;19.60;63.20
61398;DHT22;47267;48.130;-2.040;2022-11-14T11:53:55;19.60;63.10
61398;DHT22;47267;48.130;-2.040;2022-11-14T11:56:25;19.60;63.10
61398;DHT22;47267;48.130;-2.040;2022-11-14T11:59:13;19.60;63.10
61398;DHT22;47267;48.130;-2.040;2022-11-14T12:01:44;19.60;63.10
61398;DHT22;47267;48.130;-2.040;2022-11-14T12:04:15;19.60;63.10
61398;DHT22;47267;48.130;-2.040;2022-11-14T12:06:49;19.60;63.10
61398;DHT22;47267;48.130;-2.040;2022-11-14T12:09:23;19.60;63.20
61398;DHT22;47267;48.130;-2.040;2022-11-14T12:12:23;19.60;63.10
61398;DHT22;47267;48.130;-2.040;2022-11-14T12:18:23;19.70;63.20
61398;DHT22;47267;48.130;-2.040;2022-11-14T12:24:06;19.70;63.20
61398;DHT22;47267;48.130;-2.040;2022-11-14T12:32:32;19.70;63.20
61398;DHT22;47267;48.130;-2.040;2022-11-14T12:35:04;19.60;63.10
61398;DHT22;47267;48.130;-2.040;2022-11-14T12:37:34;19.70;63.20
61398;DHT22;47267;48.130;-2.040;2022-11-14T12:42:49;19.70;63.20
61398;DHT22;47267;48.130;-2.040;2022-11-14T12:50:46;19.70;63.20
61398;DHT22;47267;48.130;-2.040;2022-11-14T12:59:16;19.70;63.20
61398;DHT22;47267;48.130;-2.040;2022-11-14T13:04:43;19.70;63.20
61398;DHT22;47267;48.130;-2.040;2022-11-14T13:07:28;19.70;63.20
61398;DHT22;47267;48.130;-2.040;2022-11-14T13:12:37;19.70;63.20
61398;DHT22;47267;48.130;-2.040;2022-11-14T13:21:22;19.70;63.20
61398;DHT22;47267;48.130;-2.040;2022-11-14T13:24:07;19.70;63.20
61398;DHT22;47267;48.130;-2.040;2022-11-14T13:26:34;19.80;63.20
61398;DHT22;47267;48.130;-2.040;2022-11-14T13:29:00;19.80;63.30
61398;DHT22;47267;48.130;-2.040;2022-11-14T13:39:57;19.80;63.20
61398;DHT22;47267;48.130;-2.040;2022-11-14T13:50:35;19.80;63.20
61398;DHT22;47267;48.130;-2.040;2022-11-14T13:53:15;19.80;63.80
61398;DHT22;47267;48.130;-2.040;2022-11-14T13:55:58;19.90;63.40
61398;DHT22;47267;48.130;-2.040;2022-11-14T14:10:01;19.90;63.30
61398;DHT22;47267;48.130;-2.040;2022-11-14T14:20:38;20.00;63.30
61398;DHT22;47267;48.130;-2.040;2022-11-14T14:29:51;20.10;63.40
61398;DHT22;47267;48.130;-2.040;2022-11-14T14:31:52;20.20;63.40
61398;DHT22;47267;48.130;-2.040;2022-11-14T14:34:28;20.20;63.40
61398;DHT22;47267;48.130;-2.040;2022-11-14T14:36:55;20.20;63.40
61398;DHT22;47267;48.130;-2.040;2022-11-14T14:39:27;20.20;63.40
61398;DHT22;47267;48.130;-2.040;2022-11-14T14:41:55;20.30;63.40
61398;DHT22;47267;48.130;-2.040;2022-11-14T14:44:36;20.30;63.40
61398;DHT22;47267;48.130;-2.040;2022-11-14T14:47:49;20.30;63.40
61398;DHT22;47267;48.130;-2.040;2022-11-14T14:49:49;20.30;63.40
61398;DHT22;47267;48.130;-2.040;2022-11-14T14:52:36;20.30;63.40
61398;DHT22;47267;48.130;-2.040;2022-11-14T14:55:05;20.30;63.30
61398;DHT22;47267;48.130;-2.040;2022-11-14T14:57:33;20.40;63.40
61398;DHT22;47267;48.130;-2.040;2022-11-14T15:00:04;20.40;63.30
61398;DHT22;47267;48.130;-2.040;2022-11-14T15:02:31;20.40;63.30
61398;DHT22;47267;48.130;-2.040;2022-11-14T15:04:58;20.40;63.30
61398;DHT22;47267;48.130;-2.040;2022-11-14T15:07:26;20.40;63.30
61398;DHT22;47267;48.130;-2.040;2022-11-14T15:09:59;20.40;63.30
61398;DHT22;47267;48.130;-2.040;2022-11-14T15:12:28;20.50;63.40
61398;DHT22;47267;48.130;-2.040;2022-11-14T15:14:55;20.40;63.20
61398;DHT22;47267;48.130;-2.040;2022-11-14T15:17:23;20.40;63.20
61398;DHT22;47267;48.130;-2.040;2022-11-14T15:19:51;20.40;63.80
61398;DHT22;47267;48.130;-2.040;2022-11-14T15:24:44;20.50;63.20
61398;DHT22;47267;48.130;-2.040;2022-11-14T15:27:27;20.50;63.20
61398;DHT22;47267;48.130;-2.040;2022-11-14T15:29:57;20.50;63.20
61398;DHT22;47267;48.130;-2.040;2022-11-14T15:32:24;20.50;63.10
61398;DHT22;47267;48.130;-2.040;2022-11-14T15:40:33;20.50;63.00
61398;DHT22;47267;48.130;-2.040;2022-11-14T15:42:59;20.60;63.10
61398;DHT22;47267;48.130;-2.040;2022-11-14T15:45:38;20.60;63.10
61398;DHT22;47267;48.130;-2.040;2022-11-14T15:48:12;20.60;63.10
61398;DHT22;47267;48.130;-2.040;2022-11-14T15:50:40;20.60;63.10
61398;DHT22;47267;48.130;-2.040;2022-11-14T15:55:44;20.60;63.00
61398;DHT22;47267;48.130;-2.040;2022-11-14T15:58:11;20.60;63.00
61398;DHT22;47267;48.130;-2.040;2022-11-14T16:00:46;20.60;63.00
61398;DHT22;47267;48.130;-2.040;2022-11-14T16:03:20;20.60;63.00
61398;DHT22;47267;48.130;-2.040;2022-11-14T16:05:47;20.60;62.90
61398;DHT22;47267;48.130;-2.040;2022-11-14T16:08:13;20.60;62.90
61398;DHT22;47267;48.130;-2.040;2022-11-14T16:10:38;20.60;62.90
61398;DHT22;47267;48.130;-2.040;2022-11-14T16:13:04;20.60;62.80
61398;DHT22;47267;48.130;-2.040;2022-11-14T16:15:30;20.60;62.80
61398;DHT22;47267;48.130;-2.040;2022-11-14T16:17:56;20.60;63.40
61398;DHT22;47267;48.130;-2.040;2022-11-14T16:20:27;20.60;62.80
61398;DHT22;47267;48.130;-2.040;2022-11-14T16:22:53;20.60;62.80
61398;DHT22;47267;48.130;-2.040;2022-11-14T16:25:24;20.60;62.70
61398;DHT22;47267;48.130;-2.040;2022-11-14T16:27:50;20.60;62.70
61398;DHT22;47267;48.130;-2.040;2022-11-14T16:30:18;20.60;62.70
61398;DHT22;47267;48.130;-2.040;2022-11-14T16:32:45;20.60;62.70
61398;DHT22;47267;48.130;-2.040;2022-11-14T16:35:15;20.60;62.60
61398;DHT22;47267;48.130;-2.040;2022-11-14T16:37:41;20.60;62.70
61398;DHT22;47267;48.130;-2.040;2022-11-14T16:40:13;20.60;62.60
61398;DHT22;47267;48.130;-2.040;2022-11-14T16:42:40;20.60;62.60
61398;DHT22;47267;48.130;-2.040;2022-11-14T16:45:06;20.60;62.50
61398;DHT22;47267;48.130;-2.040;2022-11-14T16:47:32;20.60;62.50
61398;DHT22;47267;48.130;-2.040;2022-11-14T16:49:58;20.60;62.50
61398;DHT22;47267;48.130;-2.040;2022-11-14T16:52:24;20.60;62.50
61398;DHT22;47267;48.130;-2.040;2022-11-14T16:54:50;20.60;62.50
61398;DHT22;47267;48.130;-2.040;2022-11-14T16:57:16;20.50;62.40
61398;DHT22;47267;48.130;-2.040;2022-11-14T16:59:41;20.50;62.50
61398;DHT22;47267;48.130;-2.040;2022-11-14T17:02:12;20.50;62.40
61398;DHT22;47267;48.130;-2.040;2022-11-14T17:04:39;20.50;62.40
61398;DHT22;47267;48.130;-2.040;2022-11-14T17:07:07;20.50;62.40
61398;DHT22;47267;48.130;-2.040;2022-11-14T17:09:33;20.50;62.40
61398;DHT22;47267;48.130;-2.040;2022-11-14T17:11:59;20.50;62.40
61398;DHT22;47267;48.130;-2.040;2022-11-14T17:14:25;20.50;62.40
61398;DHT22;47267;48.130;-2.040;2022-11-14T17:16:50;20.50;63.00
